Terminal Aerodrome Forecast
Issued by NWS

Current Version | Previous Version | Text Only | Print | Product List | Glossary Off
Versions: 1 2 3 4 5 6 7 8 9 10 11 12 13 14 15 16 17 18 19 20 21 22 23 24 25 26 27 28 29

000
FTUS41 KPBZ 232329
TAFHLG
TAF
KHLG 232329Z 2400/2424 23005KT 5SM -TSRA BKN035CB
      TEMPO 2400/2403 3SM -TSRA BKN040CB
     FM240600 25004KT 2SM BR BKN015
     FM240800 26004KT 1SM BR SCT015
     FM241300 26005KT 2SM BR SCT008
     FM241400 27006KT P6SM SCT050=

USA.gov is the U.S. government's official web portal to all federal, state and local government web resources and services.